createdAt,value
2019-02-25T00:00:55.059Z,2.50
2019-02-25T00:03:27.258Z,2.35
2019-02-25T00:05:59.552Z,2.55
2019-02-25T00:08:32.268Z,2.40
2019-02-25T00:11:04.595Z,2.47
2019-02-25T00:13:36.841Z,2.85
2019-02-25T00:16:10.071Z,2.77
2019-02-25T00:18:42.369Z,2.45
2019-02-25T00:21:14.775Z,2.67
2019-02-25T00:23:47.000Z,3.17
2019-02-25T00:26:19.236Z,2.92
2019-02-25T00:28:51.491Z,2.65
2019-02-25T00:31:23.758Z,2.87
2019-02-25T00:33:55.995Z,3.00
2019-02-25T00:36:28.226Z,3.50
2019-02-25T00:39:00.539Z,3.40
2019-02-25T00:41:32.784Z,3.08
2019-02-25T00:44:05.962Z,2.80
2019-02-25T00:46:38.277Z,4.00
2019-02-25T00:49:10.525Z,3.17
2019-02-25T00:51:42.810Z,4.05
2019-02-25T00:54:15.080Z,3.40
2019-02-25T00:56:47.383Z,2.67
2019-02-25T00:59:19.646Z,2.22
2019-02-25T01:01:51.980Z,2.15
2019-02-25T01:04:24.316Z,2.62
2019-02-25T01:06:56.628Z,2.08
2019-02-25T01:09:28.883Z,4.25
2019-02-25T01:12:01.145Z,4.85
2019-02-25T01:14:33.405Z,3.12
2019-02-25T01:17:05.637Z,3.10
2019-02-25T01:19:37.883Z,3.30
2019-02-25T01:22:10.139Z,4.22
2019-02-25T01:24:42.433Z,3.55
2019-02-25T01:27:14.669Z,3.80
2019-02-25T01:29:46.975Z,3.45
2019-02-25T01:32:19.200Z,3.25
2019-02-25T01:34:51.501Z,3.37
2019-02-25T01:37:23.733Z,3.35
2019-02-25T01:39:56.019Z,3.25
2019-02-25T01:42:28.265Z,3.55
2019-02-25T01:45:00.508Z,4.28
2019-02-25T01:47:32.753Z,3.50
2019-02-25T01:50:06.145Z,3.67
2019-02-25T01:52:38.389Z,3.25
2019-02-25T01:55:11.134Z,3.10
2019-02-25T01:57:43.462Z,3.40
2019-02-25T02:00:16.277Z,3.05
2019-02-25T02:02:49.271Z,3.37
2019-02-25T02:05:21.538Z,2.90
2019-02-25T02:07:53.798Z,3.20
2019-02-25T02:10:26.130Z,2.83
2019-02-25T02:12:58.672Z,3.40
2019-02-25T02:15:30.955Z,2.92
2019-02-25T02:18:03.197Z,2.77
2019-02-25T02:20:35.486Z,3.27
2019-02-25T02:23:07.779Z,3.33
2019-02-25T02:25:40.056Z,3.30
2019-02-25T02:28:12.310Z,2.75
2019-02-25T02:30:44.566Z,3.35
2019-02-25T02:33:16.813Z,3.37
2019-02-25T02:35:49.999Z,3.00
2019-02-25T02:38:22.239Z,2.62
2019-02-25T02:40:54.515Z,3.30
2019-02-25T02:43:26.835Z,3.08
2019-02-25T02:46:00.615Z,3.50
2019-02-25T02:48:34.372Z,3.08
2019-02-25T02:51:06.632Z,3.30
2019-02-25T02:53:38.861Z,3.30
2019-02-25T02:56:11.124Z,3.20
2019-02-25T02:58:43.360Z,3.17
2019-02-25T03:01:15.601Z,3.00
2019-02-25T03:03:47.839Z,2.87
2019-02-25T03:06:20.098Z,3.45
2019-02-25T03:08:52.351Z,3.12
2019-02-25T03:11:24.597Z,3.22
2019-02-25T03:13:56.833Z,3.30
2019-02-25T03:16:29.117Z,3.70
2019-02-25T03:19:01.603Z,3.55
2019-02-25T03:21:33.919Z,3.85
2019-02-25T03:24:06.149Z,4.33
2019-02-25T03:26:38.416Z,3.60
2019-02-25T03:29:11.629Z,3.70
2019-02-25T03:31:43.907Z,3.47
2019-02-25T03:34:16.134Z,4.08
2019-02-25T03:36:48.385Z,4.25
2019-02-25T03:39:20.692Z,4.45
2019-02-25T03:41:52.950Z,4.47
2019-02-25T03:44:25.190Z,5.03
2019-02-25T03:46:57.441Z,5.08
2019-02-25T03:49:29.673Z,4.87
2019-02-25T03:52:01.933Z,4.12
2019-02-25T03:54:34.180Z,4.60
2019-02-25T03:57:06.429Z,4.47
2019-02-25T03:59:38.758Z,4.70
2019-02-25T04:02:11.090Z,4.58
2019-02-25T04:04:43.374Z,4.40
2019-02-25T04:07:15.613Z,5.00
2019-02-25T04:09:47.853Z,5.10
2019-02-25T04:12:20.175Z,5.20
2019-02-25T04:14:52.633Z,4.87
2019-02-25T04:17:24.902Z,4.37
2019-02-25T04:19:57.126Z,4.55
2019-02-25T04:22:29.378Z,4.08
2019-02-25T04:25:01.615Z,4.35
2019-02-25T04:27:33.885Z,4.65
2019-02-25T04:30:10.285Z,3.83
2019-02-25T04:32:42.590Z,4.28
2019-02-25T04:35:14.849Z,4.50
2019-02-25T04:37:47.144Z,4.05
2019-02-25T04:40:19.404Z,3.70
2019-02-25T04:42:51.685Z,3.90
2019-02-25T04:45:23.924Z,3.75
2019-02-25T04:47:56.203Z,3.77
2019-02-25T04:50:28.437Z,3.58
2019-02-25T04:53:00.695Z,4.70
2019-02-25T04:55:32.941Z,4.03
2019-02-25T04:58:05.270Z,4.12
2019-02-25T05:00:37.517Z,3.95
2019-02-25T05:03:09.789Z,4.00
2019-02-25T05:05:42.033Z,3.70
2019-02-25T05:08:14.284Z,4.28
2019-02-25T05:10:46.527Z,3.98
2019-02-25T05:13:19.029Z,4.03
2019-02-25T05:15:51.330Z,4.50
2019-02-25T05:18:23.589Z,4.47
2019-02-25T05:20:55.817Z,4.37
2019-02-25T05:23:28.095Z,3.72
2019-02-25T05:26:00.343Z,4.58
2019-02-25T05:28:32.760Z,4.33
2019-02-25T05:31:05.084Z,4.87
2019-02-25T05:33:37.374Z,3.98
2019-02-25T05:36:09.865Z,3.85
2019-02-25T05:38:42.310Z,4.25
2019-02-25T05:41:14.547Z,4.42
2019-02-25T05:43:46.799Z,4.67
2019-02-25T05:46:19.036Z,4.40
2019-02-25T05:48:51.341Z,4.60
2019-02-25T05:51:23.572Z,4.10
2019-02-25T05:53:55.832Z,3.95
2019-02-25T05:56:28.061Z,3.80
2019-02-25T05:59:00.307Z,3.87
2019-02-25T06:01:32.770Z,3.55
2019-02-25T06:04:05.022Z,3.70
2019-02-25T06:06:37.255Z,4.10
2019-02-25T06:09:09.529Z,2.95
2019-02-25T06:11:41.787Z,4.20
2019-02-25T06:14:14.060Z,4.35
2019-02-25T06:16:46.304Z,4.60
2019-02-25T06:19:18.579Z,4.12
2019-02-25T06:21:50.828Z,3.90
2019-02-25T06:24:23.125Z,4.10
2019-02-25T06:26:55.355Z,4.05
2019-02-25T06:29:27.636Z,4.60
2019-02-25T06:31:59.904Z,4.50
2019-02-25T06:34:32.848Z,4.58
2019-02-25T06:37:05.376Z,4.45
2019-02-25T06:39:37.642Z,5.33
2019-02-25T06:42:09.873Z,4.60
2019-02-25T06:44:42.140Z,4.78
2019-02-25T06:47:14.388Z,5.10
2019-02-25T06:49:46.622Z,4.97
2019-02-25T06:52:20.089Z,4.90
2019-02-25T06:54:52.480Z,4.70
2019-02-25T06:57:24.703Z,5.30
2019-02-25T06:59:56.991Z,4.50
2019-02-25T07:02:29.221Z,4.90
2019-02-25T07:05:06.029Z,4.58
2019-02-25T07:07:52.013Z,4.78
2019-02-25T07:10:43.709Z,4.50
2019-02-25T07:13:23.542Z,5.37
2019-02-25T07:16:00.153Z,5.00
2019-02-25T07:18:40.199Z,3.64
2019-02-25T07:21:30.431Z,3.98
2019-02-25T07:24:20.476Z,4.78
2019-02-25T07:26:57.279Z,3.93
2019-02-25T07:29:31.141Z,4.30
2019-02-25T07:32:16.841Z,4.90
2019-02-25T07:34:59.837Z,4.63
2019-02-25T07:37:51.625Z,4.28
2019-02-25T07:40:41.897Z,4.67
2019-02-25T07:43:21.482Z,4.67
2019-02-25T07:45:55.390Z,5.17
2019-02-25T07:48:29.263Z,4.95
2019-02-25T07:51:21.187Z,4.58
2019-02-25T07:54:10.108Z,4.60
2019-02-25T07:56:46.936Z,4.60
2019-02-25T07:59:23.591Z,5.28
2019-02-25T08:01:57.500Z,5.65
2019-02-25T08:04:47.551Z,5.20
2019-02-25T08:07:23.956Z,5.15
2019-02-25T08:10:03.658Z,6.08
2019-02-25T08:12:37.657Z,5.50
2019-02-25T08:15:11.537Z,5.40
2019-02-25T08:17:48.342Z,6.35
2019-02-25T08:20:28.308Z,5.55
2019-02-25T08:23:07.602Z,5.53
2019-02-25T08:25:57.895Z,6.35
2019-02-25T08:28:32.651Z,5.37
2019-02-25T08:31:06.638Z,4.97
2019-02-25T08:33:43.610Z,5.30
2019-02-25T08:36:43.148Z,4.65
2019-02-25T08:39:22.722Z,5.50
2019-02-25T08:42:02.195Z,5.12
2019-02-25T08:44:52.291Z,5.60
2019-02-25T08:47:26.195Z,5.33
2019-02-25T08:49:58.492Z,5.47
2019-02-25T08:52:30.741Z,6.28
2019-02-25T08:55:03.042Z,5.05
2019-02-25T08:57:35.660Z,5.17
2019-02-25T09:00:09.467Z,5.67
2019-02-25T09:02:41.777Z,5.90
2019-02-25T09:05:14.185Z,5.55
2019-02-25T09:07:46.463Z,5.33
2019-02-25T09:10:18.737Z,5.28
2019-02-25T09:12:50.995Z,6.25
2019-02-25T09:15:23.243Z,6.53
2019-02-25T09:17:54.955Z,7.05
2019-02-25T09:20:27.240Z,6.35
2019-02-25T09:22:59.504Z,6.45
2019-02-25T09:25:31.757Z,6.92
2019-02-25T09:28:04.010Z,6.58
2019-02-25T09:30:36.228Z,7.97
2019-02-25T09:33:08.517Z,8.18
2019-02-25T09:35:40.758Z,8.05
2019-02-25T09:38:13.016Z,7.87
2019-02-25T09:40:45.263Z,7.17
2019-02-25T09:43:17.541Z,7.15
2019-02-25T09:45:49.772Z,7.42
2019-02-25T09:48:22.103Z,6.60
2019-02-25T09:50:54.330Z,6.58
2019-02-25T09:53:26.572Z,6.50
2019-02-25T09:55:58.811Z,7.50
2019-02-25T09:58:31.105Z,7.28
2019-02-25T10:01:04.374Z,7.70
2019-02-25T10:03:36.632Z,6.83
2019-02-25T10:06:08.967Z,7.97
2019-02-25T10:08:41.194Z,7.50
2019-02-25T10:11:13.433Z,6.72
2019-02-25T10:13:45.699Z,7.58
2019-02-25T10:16:17.933Z,6.97
2019-02-25T10:18:50.192Z,7.47
2019-02-25T10:21:22.439Z,5.40
2019-02-25T10:23:54.679Z,5.25
2019-02-25T10:26:26.921Z,6.45
2019-02-25T10:28:59.188Z,6.90
2019-02-25T10:31:31.452Z,5.62
2019-02-25T10:34:04.675Z,5.37
2019-02-25T10:36:37.000Z,5.80
2019-02-25T10:39:12.894Z,5.30
2019-02-25T10:41:44.789Z,6.15
2019-02-25T10:44:17.042Z,5.62
2019-02-25T10:46:49.291Z,5.53
2019-02-25T10:49:22.560Z,5.20
2019-02-25T10:51:55.626Z,5.83
2019-02-25T10:54:27.880Z,5.03
2019-02-25T10:57:00.141Z,4.67
2019-02-25T10:59:34.438Z,4.53
2019-02-25T11:02:06.328Z,4.83
2019-02-25T11:04:38.575Z,5.00
2019-02-25T11:07:10.833Z,5.28
2019-02-25T11:09:48.280Z,5.30
2019-02-25T11:12:22.085Z,4.78
2019-02-25T11:14:55.304Z,4.65
2019-02-25T11:17:27.581Z,4.90
2019-02-25T11:20:01.251Z,5.25
2019-02-25T11:22:33.804Z,5.97
2019-02-25T11:25:07.617Z,5.72
2019-02-25T11:27:40.113Z,5.90
2019-02-25T11:30:14.383Z,5.20
2019-02-25T11:32:48.640Z,4.40
2019-02-25T11:35:21.032Z,4.10
2019-02-25T11:37:54.740Z,4.85
2019-02-25T11:40:29.023Z,4.40
2019-02-25T11:43:01.486Z,4.47
2019-02-25T11:45:36.167Z,4.05
2019-02-25T11:48:08.766Z,3.47
2019-02-25T11:50:40.988Z,3.60
2019-02-25T11:53:13.248Z,4.58
2019-02-25T11:55:45.486Z,4.47
2019-02-25T11:58:17.734Z,3.72
2019-02-25T12:00:49.976Z,3.20
2019-02-25T12:03:22.224Z,2.85
2019-02-25T12:05:54.505Z,3.10
2019-02-25T12:08:26.824Z,2.80
2019-02-25T12:10:59.088Z,3.27
2019-02-25T12:13:31.391Z,3.40
2019-02-25T12:16:03.641Z,3.58
2019-02-25T12:18:35.877Z,3.55
2019-02-25T12:21:08.151Z,3.37
2019-02-25T12:23:40.416Z,3.00
2019-02-25T12:26:12.664Z,2.85
2019-02-25T12:28:44.930Z,2.92
2019-02-25T12:31:17.193Z,3.70
2019-02-25T12:33:49.478Z,3.42
2019-02-25T12:36:21.723Z,3.42
2019-02-25T12:38:54.012Z,2.90
2019-02-25T12:41:27.344Z,3.45
2019-02-25T12:43:59.779Z,3.95
2019-02-25T12:46:32.015Z,4.03
2019-02-25T12:49:04.285Z,4.47
2019-02-25T12:51:36.540Z,2.80
2019-02-25T12:54:08.799Z,2.25
2019-02-25T12:56:41.041Z,2.52
2019-02-25T12:59:13.287Z,2.75
2019-02-25T13:01:45.524Z,3.30
2019-02-25T13:04:17.769Z,3.37
2019-02-25T13:06:49.997Z,3.50
2019-02-25T13:09:22.239Z,3.70
2019-02-25T13:11:54.547Z,3.40
2019-02-25T13:14:26.819Z,3.70
2019-02-25T13:16:59.050Z,2.83
2019-02-25T13:19:31.365Z,3.02
2019-02-25T13:22:03.593Z,3.27
2019-02-25T13:24:37.348Z,2.80
2019-02-25T13:27:11.808Z,3.30
2019-02-25T13:29:43.807Z,2.72
2019-02-25T13:32:16.116Z,3.30
2019-02-25T13:34:48.648Z,2.20
2019-02-25T13:37:20.880Z,2.12
2019-02-25T13:39:53.176Z,2.00
2019-02-25T13:42:25.440Z,3.12
2019-02-25T13:44:57.691Z,3.77
2019-02-25T13:47:30.004Z,2.87
2019-02-25T13:50:02.266Z,3.27
2019-02-25T13:52:34.560Z,2.95
2019-02-25T13:55:08.665Z,2.98
2019-02-25T13:57:40.904Z,2.30
2019-02-25T14:00:17.164Z,2.40
2019-02-25T14:02:49.542Z,2.10
2019-02-25T14:05:21.948Z,2.50
2019-02-25T14:07:54.313Z,2.30
2019-02-25T14:10:26.600Z,2.22
2019-02-25T14:12:58.927Z,2.77
2019-02-25T14:15:31.240Z,2.90
2019-02-25T14:18:03.750Z,2.05
2019-02-25T14:20:36.061Z,1.87
2019-02-25T14:23:08.300Z,1.85
2019-02-25T14:25:41.615Z,1.82
2019-02-25T14:28:13.961Z,1.95
2019-02-25T14:30:46.284Z,1.85
2019-02-25T14:33:18.516Z,2.40
2019-02-25T14:35:53.118Z,2.35
2019-02-25T14:38:25.219Z,3.40
2019-02-25T14:40:58.684Z,2.12
2019-02-25T14:43:31.010Z,2.33
2019-02-25T14:46:04.842Z,2.67
2019-02-25T14:48:37.492Z,2.70
2019-02-25T14:51:09.818Z,1.82
2019-02-25T14:53:44.120Z,2.40
2019-02-25T14:56:16.174Z,2.37
2019-02-25T14:58:48.412Z,3.05
2019-02-25T15:01:22.680Z,2.77
2019-02-25T15:03:55.994Z,2.87
2019-02-25T15:06:30.278Z,2.55
2019-02-25T15:09:05.493Z,2.77
2019-02-25T15:11:37.480Z,3.00
2019-02-25T15:14:10.721Z,2.37
2019-02-25T15:16:43.821Z,2.17
2019-02-25T15:19:16.164Z,1.92
2019-02-25T15:21:50.074Z,2.50
2019-02-25T15:24:22.546Z,2.60
2019-02-25T15:26:57.247Z,2.83
2019-02-25T15:29:29.164Z,2.95
2019-02-25T15:32:01.990Z,3.22
2019-02-25T15:34:34.301Z,3.55
2019-02-25T15:37:07.170Z,3.12
2019-02-25T15:39:42.393Z,2.90
2019-02-25T15:42:15.019Z,2.42
2019-02-25T15:44:49.211Z,2.15
2019-02-25T15:47:21.370Z,3.02
2019-02-25T15:49:55.353Z,3.65
2019-02-25T15:52:28.088Z,2.72
2019-02-25T15:55:02.166Z,2.80
2019-02-25T15:57:35.389Z,3.50
2019-02-25T16:00:10.260Z,3.30
2019-02-25T16:02:42.677Z,2.55
2019-02-25T16:05:15.167Z,2.62
2019-02-25T16:07:49.772Z,2.25
2019-02-25T16:10:22.213Z,2.75
2019-02-25T16:12:56.209Z,2.40
2019-02-25T16:15:30.515Z,3.02
2019-02-25T16:18:02.655Z,2.37
2019-02-25T16:20:35.040Z,2.00
2019-02-25T16:23:08.285Z,2.20
2019-02-25T16:25:41.339Z,2.05
2019-02-25T16:28:15.509Z,2.40
2019-02-25T16:30:49.123Z,2.17
2019-02-25T16:33:21.696Z,2.22
2019-02-25T16:35:53.939Z,2.60
2019-02-25T16:38:27.268Z,2.58
2019-02-25T16:41:00.998Z,2.17
2019-02-25T16:43:34.193Z,2.60
2019-02-25T16:46:07.272Z,2.22
2019-02-25T16:48:40.723Z,2.37
2019-02-25T16:51:13.015Z,2.50
2019-02-25T16:53:46.419Z,2.47
2019-02-25T16:56:19.255Z,2.45
2019-02-25T16:58:52.752Z,2.45
2019-02-25T17:01:27.943Z,2.30
2019-02-25T17:04:00.123Z,1.90
2019-02-25T17:06:32.946Z,2.05
2019-02-25T17:09:06.543Z,2.25
2019-02-25T17:11:40.081Z,2.40
2019-02-25T17:14:14.789Z,1.85
2019-02-25T17:16:46.965Z,1.93
2019-02-25T17:19:19.654Z,1.67
2019-02-25T17:21:53.171Z,1.35
2019-02-25T17:24:26.487Z,1.62
2019-02-25T17:27:00.066Z,1.62
2019-02-25T17:29:35.868Z,1.30
2019-02-25T17:32:09.103Z,1.55
2019-02-25T17:34:41.794Z,1.70
2019-02-25T17:37:16.657Z,1.32
2019-02-25T17:39:54.115Z,1.52
2019-02-25T17:42:24.247Z,1.87
2019-02-25T17:44:57.654Z,1.70
2019-02-25T17:47:33.185Z,1.67
2019-02-25T17:50:08.662Z,1.65
2019-02-25T17:52:42.517Z,1.87
2019-02-25T17:55:15.915Z,1.90
2019-02-25T17:57:49.877Z,1.50
2019-02-25T18:00:39.545Z,2.08
2019-02-25T18:03:11.237Z,1.70
2019-02-25T18:05:43.809Z,1.95
2019-02-25T18:08:16.123Z,1.90
2019-02-25T18:10:49.854Z,2.42
2019-02-25T18:13:23.689Z,2.22
2019-02-25T18:15:56.383Z,2.58
2019-02-25T18:18:28.640Z,2.50
2019-02-25T18:21:00.904Z,2.35
2019-02-25T18:23:34.463Z,4.30
2019-02-25T18:26:07.981Z,4.47
2019-02-25T18:28:41.721Z,4.33
2019-02-25T18:31:14.245Z,3.98
2019-02-25T18:33:48.444Z,4.00
2019-02-25T18:36:21.925Z,3.45
2019-02-25T18:38:54.936Z,3.45
2019-02-25T18:41:28.141Z,3.20
2019-02-25T18:44:01.279Z,3.30
2019-02-25T18:46:34.008Z,3.22
2019-02-25T18:49:07.416Z,3.15
2019-02-25T18:51:40.206Z,3.30
2019-02-25T18:54:14.213Z,2.27
2019-02-25T18:56:46.588Z,2.30
2019-02-25T18:59:20.336Z,2.72
2019-02-25T19:01:54.086Z,2.90
2019-02-25T19:04:26.603Z,2.80
2019-02-25T19:06:59.774Z,3.25
2019-02-25T19:09:34.728Z,2.83
2019-02-25T19:12:06.887Z,3.55
2019-02-25T19:14:39.236Z,3.67
2019-02-25T19:17:11.561Z,3.00
2019-02-25T19:19:44.563Z,2.70
2019-02-25T19:22:19.419Z,2.80
2019-02-25T19:24:51.519Z,2.37
2019-02-25T19:27:25.158Z,2.75
2019-02-25T19:30:00.183Z,2.90
2019-02-25T19:32:31.869Z,2.83
2019-02-25T19:35:07.558Z,2.70
2019-02-25T19:37:40.580Z,2.05
2019-02-25T19:40:21.838Z,2.70
2019-02-25T19:42:56.155Z,2.15
2019-02-25T19:45:27.965Z,2.50
2019-02-25T19:48:02.282Z,2.90
2019-02-25T19:50:34.774Z,3.37
2019-02-25T19:53:11.770Z,2.85
2019-02-25T19:55:45.551Z,2.98
2019-02-25T19:58:17.126Z,3.20
2019-02-25T20:00:53.017Z,3.47
2019-02-25T20:03:23.401Z,3.27
2019-02-25T20:05:56.364Z,3.17
2019-02-25T20:08:28.772Z,2.70
2019-02-25T20:11:01.027Z,2.52
2019-02-25T20:13:34.075Z,2.75
2019-02-25T20:16:08.154Z,3.05
2019-02-25T20:18:41.924Z,5.00
2019-02-25T20:21:14.248Z,4.70
2019-02-25T20:23:48.003Z,4.20
2019-02-25T20:26:22.328Z,4.00
2019-02-25T20:28:54.708Z,3.02
2019-02-25T20:31:27.008Z,3.33
2019-02-25T20:33:59.957Z,2.92
2019-02-25T20:36:33.264Z,2.60
2019-02-25T20:39:05.583Z,2.30
2019-02-25T20:41:37.851Z,1.98
2019-02-25T20:44:10.115Z,1.92
2019-02-25T20:46:42.458Z,2.00
2019-02-25T20:49:18.115Z,2.00
2019-02-25T20:51:49.981Z,1.90
2019-02-25T20:54:22.792Z,1.90
2019-02-25T20:56:55.516Z,1.70
2019-02-25T20:59:28.737Z,1.67
2019-02-25T21:02:01.744Z,2.40
2019-02-25T21:04:36.452Z,2.40
2019-02-25T21:07:08.819Z,2.08
2019-02-25T21:09:42.294Z,2.00
2019-02-25T21:12:15.683Z,1.70
2019-02-25T21:14:48.579Z,1.87
2019-02-25T21:17:20.817Z,1.35
2019-02-25T21:19:53.059Z,1.65
2019-02-25T21:22:27.271Z,1.80
2019-02-25T21:25:00.222Z,2.10
2019-02-25T21:27:34.732Z,1.98
2019-02-25T21:30:11.329Z,1.75
2019-02-25T21:32:45.635Z,1.80
2019-02-25T21:35:18.032Z,1.45
2019-02-25T21:37:52.341Z,1.52
2019-02-25T21:40:26.862Z,1.52
2019-02-25T21:42:58.391Z,1.90
2019-02-25T21:45:32.390Z,1.37
2019-02-25T21:48:06.992Z,1.42
2019-02-25T21:50:40.307Z,1.35
2019-02-25T21:53:14.348Z,1.60
2019-02-25T21:55:46.721Z,1.32
2019-02-25T21:58:21.283Z,1.50
2019-02-25T22:00:53.011Z,1.50
2019-02-25T22:03:25.262Z,1.60
2019-02-25T22:05:58.800Z,1.50
2019-02-25T22:08:33.592Z,1.70
2019-02-25T22:11:12.458Z,1.22
2019-02-25T22:13:39.483Z,1.90
2019-02-25T22:16:11.714Z,1.90
2019-02-25T22:18:44.021Z,1.80
2019-02-25T22:21:17.223Z,1.70
2019-02-25T22:23:54.186Z,2.30
2019-02-25T22:26:28.885Z,1.80
2019-02-25T22:29:00.014Z,1.85
2019-02-25T22:31:35.449Z,1.75
2019-02-25T22:34:08.823Z,2.30
2019-02-25T22:36:44.365Z,2.03
2019-02-25T22:39:16.196Z,2.00
2019-02-25T22:41:48.772Z,2.80
2019-02-25T22:44:23.100Z,1.95
2019-02-25T22:46:56.517Z,2.50
2019-02-25T22:49:30.400Z,2.85
2019-02-25T22:52:04.683Z,2.60
2019-02-25T22:54:39.082Z,2.22
2019-02-25T22:57:10.657Z,2.27
2019-02-25T22:59:42.891Z,2.30
2019-02-25T23:02:15.131Z,2.65
2019-02-25T23:04:49.451Z,2.33
2019-02-25T23:07:22.811Z,2.12
2019-02-25T23:09:55.318Z,2.37
2019-02-25T23:12:29.428Z,2.12
2019-02-25T23:15:03.865Z,2.20
2019-02-25T23:17:37.511Z,2.02
2019-02-25T23:20:10.387Z,2.25
2019-02-25T23:22:42.676Z,2.10
2019-02-25T23:25:14.939Z,1.90
2019-02-25T23:27:47.188Z,1.63
2019-02-25T23:30:21.318Z,1.75
2019-02-25T23:32:54.531Z,1.80
2019-02-25T23:35:27.160Z,2.20
2019-02-25T23:38:00.977Z,2.20
2019-02-25T23:40:35.451Z,2.30
2019-02-25T23:43:07.880Z,2.47
2019-02-25T23:45:42.141Z,2.40
2019-02-25T23:48:15.269Z,2.40
2019-02-25T23:50:48.154Z,3.07
2019-02-25T23:53:21.459Z,2.92
2019-02-25T23:55:54.363Z,2.87
2019-02-25T23:58:27.662Z,3.08
